sensor_id;sensor_type;location;lat;lon;timestamp;temperature;humidity
19622;DHT22;9958;33.196;-97.114;2023-04-15T00:01:44;25.60;99.90
19622;DHT22;9958;33.196;-97.114;2023-04-15T00:04:13;25.60;99.90
19622;DHT22;9958;33.196;-97.114;2023-04-15T00:06:41;25.50;99.90
19622;DHT22;9958;33.196;-97.114;2023-04-15T00:09:09;25.40;99.90
19622;DHT22;9958;33.196;-97.114;2023-04-15T00:11:38;25.30;99.90
19622;DHT22;9958;33.196;-97.114;2023-04-15T00:14:08;25.20;99.90
19622;DHT22;9958;33.196;-97.114;2023-04-15T00:16:36;25.20;99.90
19622;DHT22;9958;33.196;-97.114;2023-04-15T00:19:04;25.00;99.90
19622;DHT22;9958;33.196;-97.114;2023-04-15T00:21:33;25.00;99.90
19622;DHT22;9958;33.196;-97.114;2023-04-15T00:24:01;24.90;99.90
19622;DHT22;9958;33.196;-97.114;2023-04-15T00:26:29;24.90;99.90
19622;DHT22;9958;33.196;-97.114;2023-04-15T00:28:58;24.80;99.90
19622;DHT22;9958;33.196;-97.114;2023-04-15T00:31:28;24.70;99.90
19622;DHT22;9958;33.196;-97.114;2023-04-15T00:33:56;24.60;99.90
19622;DHT22;9958;33.196;-97.114;2023-04-15T00:36:25;24.60;99.90
19622;DHT22;9958;33.196;-97.114;2023-04-15T00:38:53;24.50;99.90
19622;DHT22;9958;33.196;-97.114;2023-04-15T00:41:22;24.40;99.90
19622;DHT22;9958;33.196;-97.114;2023-04-15T00:43:50;24.30;99.90
19622;DHT22;9958;33.196;-97.114;2023-04-15T00:46:19;24.30;99.90
19622;DHT22;9958;33.196;-97.114;2023-04-15T00:48:50;24.10;99.90
19622;DHT22;9958;33.196;-97.114;2023-04-15T00:51:19;24.10;99.90
19622;DHT22;9958;33.196;-97.114;2023-04-15T00:53:47;24.00;99.90
19622;DHT22;9958;33.196;-97.114;2023-04-15T00:56:18;24.00;99.90
19622;DHT22;9958;33.196;-97.114;2023-04-15T00:58:47;23.90;99.90
19622;DHT22;9958;33.196;-97.114;2023-04-15T01:01:16;23.80;99.90
19622;DHT22;9958;33.196;-97.114;2023-04-15T01:03:45;23.80;99.90
19622;DHT22;9958;33.196;-97.114;2023-04-15T01:06:16;23.70;99.90
19622;DHT22;9958;33.196;-97.114;2023-04-15T01:08:45;23.70;99.90
19622;DHT22;9958;33.196;-97.114;2023-04-15T01:11:13;23.60;99.90
19622;DHT22;9958;33.196;-97.114;2023-04-15T01:13:42;23.60;99.90
19622;DHT22;9958;33.196;-97.114;2023-04-15T01:16:11;23.50;99.90
19622;DHT22;9958;33.196;-97.114;2023-04-15T01:18:40;23.40;99.90
19622;DHT22;9958;33.196;-97.114;2023-04-15T01:21:08;23.40;99.90
19622;DHT22;9958;33.196;-97.114;2023-04-15T01:23:38;23.40;99.90
19622;DHT22;9958;33.196;-97.114;2023-04-15T01:26:08;23.30;99.90
19622;DHT22;9958;33.196;-97.114;2023-04-15T01:28:37;23.30;99.90
19622;DHT22;9958;33.196;-97.114;2023-04-15T01:31:07;23.30;99.90
19622;DHT22;9958;33.196;-97.114;2023-04-15T01:33:36;23.30;99.90
19622;DHT22;9958;33.196;-97.114;2023-04-15T01:36:06;23.20;99.90
19622;DHT22;9958;33.196;-97.114;2023-04-15T01:38:35;23.20;99.90
19622;DHT22;9958;33.196;-97.114;2023-04-15T01:41:04;23.20;99.90
19622;DHT22;9958;33.196;-97.114;2023-04-15T01:43:35;23.20;99.90
19622;DHT22;9958;33.196;-97.114;2023-04-15T01:46:04;23.10;99.90
19622;DHT22;9958;33.196;-97.114;2023-04-15T01:48:32;23.10;99.90
19622;DHT22;9958;33.196;-97.114;2023-04-15T01:51:00;23.10;99.90
19622;DHT22;9958;33.196;-97.114;2023-04-15T01:53:29;23.00;99.90
19622;DHT22;9958;33.196;-97.114;2023-04-15T01:55:57;23.00;99.90
19622;DHT22;9958;33.196;-97.114;2023-04-15T01:58:26;23.00;99.90
19622;DHT22;9958;33.196;-97.114;2023-04-15T02:00:55;23.00;99.90
19622;DHT22;9958;33.196;-97.114;2023-04-15T02:03:24;23.00;99.90
19622;DHT22;9958;33.196;-97.114;2023-04-15T02:05:53;22.90;99.90
19622;DHT22;9958;33.196;-97.114;2023-04-15T02:08:21;22.90;99.90
19622;DHT22;9958;33.196;-97.114;2023-04-15T02:10:49;22.90;99.90
19622;DHT22;9958;33.196;-97.114;2023-04-15T02:13:18;22.90;99.90
19622;DHT22;9958;33.196;-97.114;2023-04-15T02:15:49;22.90;99.90
19622;DHT22;9958;33.196;-97.114;2023-04-15T02:18:20;22.90;99.90
19622;DHT22;9958;33.196;-97.114;2023-04-15T02:20:49;22.90;99.90
19622;DHT22;9958;33.196;-97.114;2023-04-15T02:23:18;23.00;99.90
19622;DHT22;9958;33.196;-97.114;2023-04-15T02:25:46;22.90;99.90
19622;DHT22;9958;33.196;-97.114;2023-04-15T02:28:14;22.90;99.90
19622;DHT22;9958;33.196;-97.114;2023-04-15T02:30:43;23.00;99.90
19622;DHT22;9958;33.196;-97.114;2023-04-15T02:33:14;22.90;99.90
19622;DHT22;9958;33.196;-97.114;2023-04-15T02:35:44;23.00;99.90
19622;DHT22;9958;33.196;-97.114;2023-04-15T02:38:12;23.00;99.90
19622;DHT22;9958;33.196;-97.114;2023-04-15T02:40:42;23.00;99.90
19622;DHT22;9958;33.196;-97.114;2023-04-15T02:43:10;23.00;99.90
19622;DHT22;9958;33.196;-97.114;2023-04-15T02:45:39;23.00;99.90
19622;DHT22;9958;33.196;-97.114;2023-04-15T02:48:08;23.00;99.90
19622;DHT22;9958;33.196;-97.114;2023-04-15T02:50:37;23.00;99.90
19622;DHT22;9958;33.196;-97.114;2023-04-15T02:53:07;23.00;99.90
19622;DHT22;9958;33.196;-97.114;2023-04-15T02:55:36;23.00;99.90
19622;DHT22;9958;33.196;-97.114;2023-04-15T02:58:04;22.90;99.90
19622;DHT22;9958;33.196;-97.114;2023-04-15T03:00:32;23.00;99.90
19622;DHT22;9958;33.196;-97.114;2023-04-15T03:03:03;23.00;99.90
19622;DHT22;9958;33.196;-97.114;2023-04-15T03:05:31;22.90;99.90
19622;DHT22;9958;33.196;-97.114;2023-04-15T03:08:00;22.90;99.90
19622;DHT22;9958;33.196;-97.114;2023-04-15T03:10:30;23.00;99.90
19622;DHT22;9958;33.196;-97.114;2023-04-15T03:12:58;23.00;99.90
19622;DHT22;9958;33.196;-97.114;2023-04-15T03:15:26;23.00;99.90
19622;DHT22;9958;33.196;-97.114;2023-04-15T03:17:55;23.00;99.90
19622;DHT22;9958;33.196;-97.114;2023-04-15T03:20:23;23.00;99.90
19622;DHT22;9958;33.196;-97.114;2023-04-15T03:22:51;23.00;99.90
19622;DHT22;9958;33.196;-97.114;2023-04-15T03:25:20;23.00;99.90
19622;DHT22;9958;33.196;-97.114;2023-04-15T03:27:50;23.00;99.90
19622;DHT22;9958;33.196;-97.114;2023-04-15T03:30:18;23.00;99.90
19622;DHT22;9958;33.196;-97.114;2023-04-15T03:32:46;22.90;99.90
19622;DHT22;9958;33.196;-97.114;2023-04-15T03:35:15;22.90;99.90
19622;DHT22;9958;33.196;-97.114;2023-04-15T03:37:43;22.90;99.90
19622;DHT22;9958;33.196;-97.114;2023-04-15T03:40:12;22.90;99.90
19622;DHT22;9958;33.196;-97.114;2023-04-15T03:42:41;22.80;99.90
19622;DHT22;9958;33.196;-97.114;2023-04-15T03:45:11;22.80;99.90
19622;DHT22;9958;33.196;-97.114;2023-04-15T03:47:39;22.80;99.90
19622;DHT22;9958;33.196;-97.114;2023-04-15T03:50:08;22.80;99.90
19622;DHT22;9958;33.196;-97.114;2023-04-15T03:52:36;22.80;99.90
19622;DHT22;9958;33.196;-97.114;2023-04-15T03:55:05;22.80;99.90
19622;DHT22;9958;33.196;-97.114;2023-04-15T03:57:34;22.70;99.90
19622;DHT22;9958;33.196;-97.114;2023-04-15T04:00:05;22.70;99.90
19622;DHT22;9958;33.196;-97.114;2023-04-15T04:02:36;22.70;99.90
19622;DHT22;9958;33.196;-97.114;2023-04-15T04:05:04;22.70;99.90
19622;DHT22;9958;33.196;-97.114;2023-04-15T04:07:33;22.70;99.90
19622;DHT22;9958;33.196;-97.114;2023-04-15T04:10:03;22.70;99.90
19622;DHT22;9958;33.196;-97.114;2023-04-15T04:12:31;22.70;99.90
19622;DHT22;9958;33.196;-97.114;2023-04-15T04:14:59;22.70;99.90
19622;DHT22;9958;33.196;-97.114;2023-04-15T04:17:28;22.70;99.90
19622;DHT22;9958;33.196;-97.114;2023-04-15T04:19:57;22.70;99.90
19622;DHT22;9958;33.196;-97.114;2023-04-15T04:22:26;22.70;99.90
19622;DHT22;9958;33.196;-97.114;2023-04-15T04:24:54;22.70;99.90
19622;DHT22;9958;33.196;-97.114;2023-04-15T04:27:24;22.70;99.90
19622;DHT22;9958;33.196;-97.114;2023-04-15T04:29:53;22.80;99.90
19622;DHT22;9958;33.196;-97.114;2023-04-15T04:32:21;22.80;99.90
19622;DHT22;9958;33.196;-97.114;2023-04-15T04:34:49;22.70;99.90
19622;DHT22;9958;33.196;-97.114;2023-04-15T04:37:19;22.80;99.90
19622;DHT22;9958;33.196;-97.114;2023-04-15T04:39:48;22.70;99.90
19622;DHT22;9958;33.196;-97.114;2023-04-15T04:42:16;22.70;99.90
19622;DHT22;9958;33.196;-97.114;2023-04-15T04:44:45;22.70;99.90
19622;DHT22;9958;33.196;-97.114;2023-04-15T04:47:13;22.70;99.90
19622;DHT22;9958;33.196;-97.114;2023-04-15T04:49:41;22.70;99.90
19622;DHT22;9958;33.196;-97.114;2023-04-15T04:52:10;22.70;99.90
19622;DHT22;9958;33.196;-97.114;2023-04-15T04:54:40;22.70;99.90
19622;DHT22;9958;33.196;-97.114;2023-04-15T04:57:08;22.70;99.90
19622;DHT22;9958;33.196;-97.114;2023-04-15T04:59:39;22.70;99.90
19622;DHT22;9958;33.196;-97.114;2023-04-15T05:02:07;22.70;99.90
19622;DHT22;9958;33.196;-97.114;2023-04-15T05:04:35;22.70;99.90
19622;DHT22;9958;33.196;-97.114;2023-04-15T05:07:04;22.80;99.90
19622;DHT22;9958;33.196;-97.114;2023-04-15T05:09:32;22.70;99.90
19622;DHT22;9958;33.196;-97.114;2023-04-15T05:12:03;22.80;99.90
19622;DHT22;9958;33.196;-97.114;2023-04-15T05:14:32;22.80;99.90
19622;DHT22;9958;33.196;-97.114;2023-04-15T05:17:00;22.70;99.90
19622;DHT22;9958;33.196;-97.114;2023-04-15T05:19:28;22.70;99.90
19622;DHT22;9958;33.196;-97.114;2023-04-15T05:21:57;22.80;99.90
19622;DHT22;9958;33.196;-97.114;2023-04-15T05:24:25;22.70;99.90
19622;DHT22;9958;33.196;-97.114;2023-04-15T05:26:54;22.70;99.90
19622;DHT22;9958;33.196;-97.114;2023-04-15T05:29:24;22.70;99.90
19622;DHT22;9958;33.196;-97.114;2023-04-15T05:31:52;22.70;99.90
19622;DHT22;9958;33.196;-97.114;2023-04-15T05:34:20;22.70;99.90
19622;DHT22;9958;33.196;-97.114;2023-04-15T05:36:49;22.70;99.90
19622;DHT22;9958;33.196;-97.114;2023-04-15T05:39:18;22.60;99.90
19622;DHT22;9958;33.196;-97.114;2023-04-15T05:41:46;22.60;99.90
19622;DHT22;9958;33.196;-97.114;2023-04-15T05:44:14;22.60;99.90
19622;DHT22;9958;33.196;-97.114;2023-04-15T05:46:44;22.60;99.90
19622;DHT22;9958;33.196;-97.114;2023-04-15T05:49:13;22.50;99.90
19622;DHT22;9958;33.196;-97.114;2023-04-15T05:51:41;22.40;99.90
19622;DHT22;9958;33.196;-97.114;2023-04-15T05:54:09;22.40;99.90
19622;DHT22;9958;33.196;-97.114;2023-04-15T05:56:38;22.40;99.90
19622;DHT22;9958;33.196;-97.114;2023-04-15T05:59:06;22.40;99.90
19622;DHT22;9958;33.196;-97.114;2023-04-15T06:01:34;22.40;99.90
19622;DHT22;9958;33.196;-97.114;2023-04-15T06:04:04;22.40;99.90
19622;DHT22;9958;33.196;-97.114;2023-04-15T06:06:33;22.40;99.90
19622;DHT22;9958;33.196;-97.114;2023-04-15T06:09:01;22.40;99.90
19622;DHT22;9958;33.196;-97.114;2023-04-15T06:11:30;22.40;99.90
19622;DHT22;9958;33.196;-97.114;2023-04-15T06:13:58;22.40;99.90
19622;DHT22;9958;33.196;-97.114;2023-04-15T06:16:26;22.40;99.90
19622;DHT22;9958;33.196;-97.114;2023-04-15T06:18:55;22.40;99.90
19622;DHT22;9958;33.196;-97.114;2023-04-15T06:21:24;22.40;99.90
19622;DHT22;9958;33.196;-97.114;2023-04-15T06:23:53;22.40;99.90
19622;DHT22;9958;33.196;-97.114;2023-04-15T06:26:22;22.40;99.90
19622;DHT22;9958;33.196;-97.114;2023-04-15T06:28:50;22.40;99.90
19622;DHT22;9958;33.196;-97.114;2023-04-15T06:31:18;22.40;99.90
19622;DHT22;9958;33.196;-97.114;2023-04-15T06:33:47;22.30;99.90
19622;DHT22;9958;33.196;-97.114;2023-04-15T06:36:15;22.30;99.90
19622;DHT22;9958;33.196;-97.114;2023-04-15T06:38:45;22.30;99.90
19622;DHT22;9958;33.196;-97.114;2023-04-15T06:41:13;22.20;99.90
19622;DHT22;9958;33.196;-97.114;2023-04-15T06:43:42;22.20;99.90
19622;DHT22;9958;33.196;-97.114;2023-04-15T06:46:10;22.20;99.90
19622;DHT22;9958;33.196;-97.114;2023-04-15T06:48:38;22.10;99.90
19622;DHT22;9958;33.196;-97.114;2023-04-15T06:51:07;22.10;99.90
19622;DHT22;9958;33.196;-97.114;2023-04-15T06:53:35;22.10;99.90
19622;DHT22;9958;33.196;-97.114;2023-04-15T06:56:08;22.10;99.90
19622;DHT22;9958;33.196;-97.114;2023-04-15T06:58:36;22.10;99.90
19622;DHT22;9958;33.196;-97.114;2023-04-15T07:01:05;22.10;99.90
19622;DHT22;9958;33.196;-97.114;2023-04-15T07:03:33;22.10;99.90
19622;DHT22;9958;33.196;-97.114;2023-04-15T07:06:02;22.00;99.90
19622;DHT22;9958;33.196;-97.114;2023-04-15T07:08:32;22.10;99.90
19622;DHT22;9958;33.196;-97.114;2023-04-15T07:11:02;22.00;99.90
19622;DHT22;9958;33.196;-97.114;2023-04-15T07:13:32;22.00;99.90
19622;DHT22;9958;33.196;-97.114;2023-04-15T07:16:00;22.10;99.90
19622;DHT22;9958;33.196;-97.114;2023-04-15T07:18:29;22.00;99.90
19622;DHT22;9958;33.196;-97.114;2023-04-15T07:20:57;22.00;99.90
19622;DHT22;9958;33.196;-97.114;2023-04-15T07:23:25;22.00;99.90
19622;DHT22;9958;33.196;-97.114;2023-04-15T07:25:54;22.00;99.90
19622;DHT22;9958;33.196;-97.114;2023-04-15T07:28:22;22.00;99.90
19622;DHT22;9958;33.196;-97.114;2023-04-15T07:30:52;22.00;99.90
19622;DHT22;9958;33.196;-97.114;2023-04-15T07:33:21;21.90;99.90
19622;DHT22;9958;33.196;-97.114;2023-04-15T07:35:49;21.90;99.90
19622;DHT22;9958;33.196;-97.114;2023-04-15T07:38:17;21.90;99.90
19622;DHT22;9958;33.196;-97.114;2023-04-15T07:40:46;21.90;99.90
19622;DHT22;9958;33.196;-97.114;2023-04-15T07:43:14;22.00;99.90
19622;DHT22;9958;33.196;-97.114;2023-04-15T07:45:44;21.90;99.90
19622;DHT22;9958;33.196;-97.114;2023-04-15T07:48:14;21.90;99.90
19622;DHT22;9958;33.196;-97.114;2023-04-15T07:50:42;21.90;99.90
19622;DHT22;9958;33.196;-97.114;2023-04-15T07:53:10;21.80;99.90
19622;DHT22;9958;33.196;-97.114;2023-04-15T07:55:39;21.80;99.90
19622;DHT22;9958;33.196;-97.114;2023-04-15T07:58:07;21.80;99.90
19622;DHT22;9958;33.196;-97.114;2023-04-15T08:00:36;21.70;99.90
19622;DHT22;9958;33.196;-97.114;2023-04-15T08:03:05;21.70;99.90
19622;DHT22;9958;33.196;-97.114;2023-04-15T08:05:35;21.70;99.90
19622;DHT22;9958;33.196;-97.114;2023-04-15T08:08:03;21.60;99.90
19622;DHT22;9958;33.196;-97.114;2023-04-15T08:10:32;21.60;99.90
19622;DHT22;9958;33.196;-97.114;2023-04-15T08:13:01;21.60;99.90
19622;DHT22;9958;33.196;-97.114;2023-04-15T08:15:29;21.50;99.90
19622;DHT22;9958;33.196;-97.114;2023-04-15T08:17:58;21.50;99.90
19622;DHT22;9958;33.196;-97.114;2023-04-15T08:20:27;21.50;99.90
19622;DHT22;9958;33.196;-97.114;2023-04-15T08:22:57;21.50;99.90
19622;DHT22;9958;33.196;-97.114;2023-04-15T08:25:25;21.50;99.90
19622;DHT22;9958;33.196;-97.114;2023-04-15T08:27:55;21.50;99.90
19622;DHT22;9958;33.196;-97.114;2023-04-15T08:30:24;21.50;99.90
19622;DHT22;9958;33.196;-97.114;2023-04-15T08:32:52;21.50;99.90
19622;DHT22;9958;33.196;-97.114;2023-04-15T08:35:20;21.50;99.90
19622;DHT22;9958;33.196;-97.114;2023-04-15T08:37:48;21.50;99.90
19622;DHT22;9958;33.196;-97.114;2023-04-15T08:40:18;21.50;99.90
19622;DHT22;9958;33.196;-97.114;2023-04-15T08:42:48;21.50;99.90
19622;DHT22;9958;33.196;-97.114;2023-04-15T08:45:21;21.50;99.90
19622;DHT22;9958;33.196;-97.114;2023-04-15T08:47:51;21.50;99.90
19622;DHT22;9958;33.196;-97.114;2023-04-15T08:50:24;21.50;99.90
19622;DHT22;9958;33.196;-97.114;2023-04-15T08:52:54;21.50;99.90
19622;DHT22;9958;33.196;-97.114;2023-04-15T08:55:25;21.50;99.90
19622;DHT22;9958;33.196;-97.114;2023-04-15T08:57:55;21.50;99.90
19622;DHT22;9958;33.196;-97.114;2023-04-15T09:00:24;21.50;99.90
19622;DHT22;9958;33.196;-97.114;2023-04-15T09:02:55;21.50;99.90
19622;DHT22;9958;33.196;-97.114;2023-04-15T09:05:23;21.50;99.90
19622;DHT22;9958;33.196;-97.114;2023-04-15T09:07:52;21.50;99.90
19622;DHT22;9958;33.196;-97.114;2023-04-15T09:10:20;21.50;99.90
19622;DHT22;9958;33.196;-97.114;2023-04-15T09:12:50;21.50;99.90
19622;DHT22;9958;33.196;-97.114;2023-04-15T09:15:18;21.50;99.90
19622;DHT22;9958;33.196;-97.114;2023-04-15T09:17:47;21.50;99.90
19622;DHT22;9958;33.196;-97.114;2023-04-15T09:20:16;21.40;99.90
19622;DHT22;9958;33.196;-97.114;2023-04-15T09:22:46;21.40;99.90
19622;DHT22;9958;33.196;-97.114;2023-04-15T09:25:30;21.40;99.90
19622;DHT22;9958;33.196;-97.114;2023-04-15T09:28:01;21.40;99.90
19622;DHT22;9958;33.196;-97.114;2023-04-15T09:30:29;21.40;99.90
19622;DHT22;9958;33.196;-97.114;2023-04-15T09:32:58;21.40;99.90
19622;DHT22;9958;33.196;-97.114;2023-04-15T09:35:27;21.40;99.90
19622;DHT22;9958;33.196;-97.114;2023-04-15T09:38:02;21.40;99.90
19622;DHT22;9958;33.196;-97.114;2023-04-15T09:40:32;21.40;99.90
19622;DHT22;9958;33.196;-97.114;2023-04-15T09:43:03;21.40;99.90
19622;DHT22;9958;33.196;-97.114;2023-04-15T09:45:32;21.40;99.90
19622;DHT22;9958;33.196;-97.114;2023-04-15T09:48:17;21.40;99.90
19622;DHT22;9958;33.196;-97.114;2023-04-15T09:50:46;21.40;99.90
19622;DHT22;9958;33.196;-97.114;2023-04-15T09:53:16;21.40;99.90
19622;DHT22;9958;33.196;-97.114;2023-04-15T09:55:48;21.40;99.90
19622;DHT22;9958;33.196;-97.114;2023-04-15T09:58:23;21.30;99.90
19622;DHT22;9958;33.196;-97.114;2023-04-15T10:00:52;21.30;99.90
19622;DHT22;9958;33.196;-97.114;2023-04-15T10:03:22;21.30;99.90
19622;DHT22;9958;33.196;-97.114;2023-04-15T10:05:53;21.30;99.90
19622;DHT22;9958;33.196;-97.114;2023-04-15T10:08:22;21.30;99.90
19622;DHT22;9958;33.196;-97.114;2023-04-15T10:10:52;21.30;99.90
19622;DHT22;9958;33.196;-97.114;2023-04-15T10:13:24;21.30;99.90
19622;DHT22;9958;33.196;-97.114;2023-04-15T10:15:57;21.30;99.90
19622;DHT22;9958;33.196;-97.114;2023-04-15T10:18:27;21.30;99.90
19622;DHT22;9958;33.196;-97.114;2023-04-15T10:20:56;21.30;99.90
19622;DHT22;9958;33.196;-97.114;2023-04-15T10:23:24;21.30;99.90
19622;DHT22;9958;33.196;-97.114;2023-04-15T10:25:54;21.30;99.90
19622;DHT22;9958;33.196;-97.114;2023-04-15T10:28:25;21.30;99.90
19622;DHT22;9958;33.196;-97.114;2023-04-15T10:30:54;21.30;99.90
19622;DHT22;9958;33.196;-97.114;2023-04-15T10:33:23;21.30;99.90
19622;DHT22;9958;33.196;-97.114;2023-04-15T10:35:53;21.30;99.90
19622;DHT22;9958;33.196;-97.114;2023-04-15T10:38:32;21.30;99.90
19622;DHT22;9958;33.196;-97.114;2023-04-15T10:41:15;21.40;99.90
19622;DHT22;9958;33.196;-97.114;2023-04-15T10:43:50;21.40;99.90
19622;DHT22;9958;33.196;-97.114;2023-04-15T10:46:21;21.30;99.90
19622;DHT22;9958;33.196;-97.114;2023-04-15T10:48:51;21.30;99.90
19622;DHT22;9958;33.196;-97.114;2023-04-15T10:51:30;21.30;99.90
19622;DHT22;9958;33.196;-97.114;2023-04-15T10:53:59;21.20;99.90
19622;DHT22;9958;33.196;-97.114;2023-04-15T10:56:30;21.20;99.90
19622;DHT22;9958;33.196;-97.114;2023-04-15T10:59:01;21.20;99.90
19622;DHT22;9958;33.196;-97.114;2023-04-15T11:01:52;21.20;99.90
19622;DHT22;9958;33.196;-97.114;2023-04-15T11:04:52;21.10;99.90
19622;DHT22;9958;33.196;-97.114;2023-04-15T11:07:37;21.10;99.90
19622;DHT22;9958;33.196;-97.114;2023-04-15T11:13:27;21.00;99.90
19622;DHT22;9958;33.196;-97.114;2023-04-15T11:15:59;21.00;99.90
19622;DHT22;9958;33.196;-97.114;2023-04-15T11:18:30;21.00;99.90
19622;DHT22;9958;33.196;-97.114;2023-04-15T11:21:00;21.00;99.90
19622;DHT22;9958;33.196;-97.114;2023-04-15T11:23:31;21.00;99.90
19622;DHT22;9958;33.196;-97.114;2023-04-15T11:26:00;21.00;99.90
19622;DHT22;9958;33.196;-97.114;2023-04-15T11:28:31;21.00;99.90
19622;DHT22;9958;33.196;-97.114;2023-04-15T11:31:08;21.00;99.90
19622;DHT22;9958;33.196;-97.114;2023-04-15T11:33:44;21.00;99.90
19622;DHT22;9958;33.196;-97.114;2023-04-15T11:36:13;20.90;99.90
19622;DHT22;9958;33.196;-97.114;2023-04-15T11:38:47;20.90;99.90
19622;DHT22;9958;33.196;-97.114;2023-04-15T11:41:19;20.90;99.90
19622;DHT22;9958;33.196;-97.114;2023-04-15T11:43:49;20.90;99.90
19622;DHT22;9958;33.196;-97.114;2023-04-15T11:46:20;20.90;99.90
19622;DHT22;9958;33.196;-97.114;2023-04-15T11:48:48;20.90;99.90
19622;DHT22;9958;33.196;-97.114;2023-04-15T11:51:17;20.90;99.90
19622;DHT22;9958;33.196;-97.114;2023-04-15T11:53:47;20.90;99.90
19622;DHT22;9958;33.196;-97.114;2023-04-15T11:56:20;20.90;99.90
19622;DHT22;9958;33.196;-97.114;2023-04-15T11:58:51;20.90;99.90
19622;DHT22;9958;33.196;-97.114;2023-04-15T12:01:30;20.90;99.90
19622;DHT22;9958;33.196;-97.114;2023-04-15T12:03:59;20.90;99.90
19622;DHT22;9958;33.196;-97.114;2023-04-15T12:06:31;20.90;99.90
19622;DHT22;9958;33.196;-97.114;2023-04-15T12:09:07;20.90;99.90
19622;DHT22;9958;33.196;-97.114;2023-04-15T12:11:44;20.90;99.90
19622;DHT22;9958;33.196;-97.114;2023-04-15T12:14:19;20.90;99.90
19622;DHT22;9958;33.196;-97.114;2023-04-15T12:16:51;20.90;99.90
19622;DHT22;9958;33.196;-97.114;2023-04-15T12:19:24;20.90;99.90
19622;DHT22;9958;33.196;-97.114;2023-04-15T12:21:57;20.90;99.90
19622;DHT22;9958;33.196;-97.114;2023-04-15T12:24:26;20.90;99.90
19622;DHT22;9958;33.196;-97.114;2023-04-15T12:26:55;20.90;99.90
19622;DHT22;9958;33.196;-97.114;2023-04-15T12:29:26;20.90;99.90
19622;DHT22;9958;33.196;-97.114;2023-04-15T12:31:58;20.90;99.90
19622;DHT22;9958;33.196;-97.114;2023-04-15T12:34:27;20.90;99.90
19622;DHT22;9958;33.196;-97.114;2023-04-15T12:36:57;20.90;99.90
19622;DHT22;9958;33.196;-97.114;2023-04-15T12:39:27;21.00;99.90
19622;DHT22;9958;33.196;-97.114;2023-04-15T12:41:56;21.10;99.90
19622;DHT22;9958;33.196;-97.114;2023-04-15T12:44:25;21.30;99.90
19622;DHT22;9958;33.196;-97.114;2023-04-15T12:46:55;21.50;99.90
19622;DHT22;9958;33.196;-97.114;2023-04-15T12:49:24;21.70;99.90
19622;DHT22;9958;33.196;-97.114;2023-04-15T12:51:53;22.00;99.90
19622;DHT22;9958;33.196;-97.114;2023-04-15T12:54:22;22.20;99.90
19622;DHT22;9958;33.196;-97.114;2023-04-15T12:56:50;22.40;99.90
19622;DHT22;9958;33.196;-97.114;2023-04-15T12:59:19;22.50;99.90
19622;DHT22;9958;33.196;-97.114;2023-04-15T13:01:49;22.70;99.90
19622;DHT22;9958;33.196;-97.114;2023-04-15T13:04:20;22.80;99.90
19622;DHT22;9958;33.196;-97.114;2023-04-15T13:06:49;23.00;99.90
19622;DHT22;9958;33.196;-97.114;2023-04-15T13:09:17;23.00;99.90
19622;DHT22;9958;33.196;-97.114;2023-04-15T13:11:45;23.10;99.90
19622;DHT22;9958;33.196;-97.114;2023-04-15T13:14:14;23.20;99.90
19622;DHT22;9958;33.196;-97.114;2023-04-15T13:16:42;23.30;99.90
19622;DHT22;9958;33.196;-97.114;2023-04-15T13:19:11;23.40;99.90
19622;DHT22;9958;33.196;-97.114;2023-04-15T13:21:40;23.50;99.90
19622;DHT22;9958;33.196;-97.114;2023-04-15T13:24:09;23.60;99.90
19622;DHT22;9958;33.196;-97.114;2023-04-15T13:26:37;23.70;99.90
19622;DHT22;9958;33.196;-97.114;2023-04-15T13:29:05;23.80;99.90
19622;DHT22;9958;33.196;-97.114;2023-04-15T13:31:34;23.90;99.90
19622;DHT22;9958;33.196;-97.114;2023-04-15T13:34:02;24.00;99.90
19622;DHT22;9958;33.196;-97.114;2023-04-15T13:36:30;24.10;99.90
19622;DHT22;9958;33.196;-97.114;2023-04-15T13:39:00;24.20;99.90
19622;DHT22;9958;33.196;-97.114;2023-04-15T13:41:30;24.30;99.90
19622;DHT22;9958;33.196;-97.114;2023-04-15T13:43:59;24.50;99.90
19622;DHT22;9958;33.196;-97.114;2023-04-15T13:46:27;24.60;99.90
19622;DHT22;9958;33.196;-97.114;2023-04-15T13:48:55;24.70;99.90
19622;DHT22;9958;33.196;-97.114;2023-04-15T13:51:24;24.80;99.90
19622;DHT22;9958;33.196;-97.114;2023-04-15T13:53:52;24.90;99.90
19622;DHT22;9958;33.196;-97.114;2023-04-15T13:56:22;25.00;99.90
19622;DHT22;9958;33.196;-97.114;2023-04-15T13:58:52;25.10;99.90
19622;DHT22;9958;33.196;-97.114;2023-04-15T14:01:24;25.20;99.90
19622;DHT22;9958;33.196;-97.114;2023-04-15T14:03:52;25.30;99.90
19622;DHT22;9958;33.196;-97.114;2023-04-15T14:06:21;25.50;99.90
19622;DHT22;9958;33.196;-97.114;2023-04-15T14:08:49;25.70;99.90
19622;DHT22;9958;33.196;-97.114;2023-04-15T14:11:17;25.80;99.90
19622;DHT22;9958;33.196;-97.114;2023-04-15T14:13:47;25.90;99.90
19622;DHT22;9958;33.196;-97.114;2023-04-15T14:16:15;25.90;99.90
19622;DHT22;9958;33.196;-97.114;2023-04-15T14:18:44;26.00;99.90
19622;DHT22;9958;33.196;-97.114;2023-04-15T14:21:12;26.20;99.90
19622;DHT22;9958;33.196;-97.114;2023-04-15T14:23:41;26.30;99.90
19622;DHT22;9958;33.196;-97.114;2023-04-15T14:26:09;26.50;99.90
19622;DHT22;9958;33.196;-97.114;2023-04-15T14:28:37;26.60;99.90
19622;DHT22;9958;33.196;-97.114;2023-04-15T14:31:07;26.70;99.90
19622;DHT22;9958;33.196;-97.114;2023-04-15T14:33:35;26.80;99.90
19622;DHT22;9958;33.196;-97.114;2023-04-15T14:36:04;26.80;99.90
19622;DHT22;9958;33.196;-97.114;2023-04-15T14:38:34;26.80;99.90
19622;DHT22;9958;33.196;-97.114;2023-04-15T14:41:03;26.80;99.90
19622;DHT22;9958;33.196;-97.114;2023-04-15T14:43:32;26.80;99.90
19622;DHT22;9958;33.196;-97.114;2023-04-15T14:46:00;26.70;99.90
19622;DHT22;9958;33.196;-97.114;2023-04-15T14:48:30;26.70;99.90
19622;DHT22;9958;33.196;-97.114;2023-04-15T14:50:59;26.70;99.90
19622;DHT22;9958;33.196;-97.114;2023-04-15T14:53:27;26.80;99.90
19622;DHT22;9958;33.196;-97.114;2023-04-15T14:55:55;26.90;99.90
19622;DHT22;9958;33.196;-97.114;2023-04-15T14:58:24;27.00;99.90
19622;DHT22;9958;33.196;-97.114;2023-04-15T15:00:52;27.10;99.90
19622;DHT22;9958;33.196;-97.114;2023-04-15T15:03:20;27.10;99.90
19622;DHT22;9958;33.196;-97.114;2023-04-15T15:05:50;27.10;99.90
19622;DHT22;9958;33.196;-97.114;2023-04-15T15:08:19;27.20;99.90
19622;DHT22;9958;33.196;-97.114;2023-04-15T15:10:47;27.20;99.90
19622;DHT22;9958;33.196;-97.114;2023-04-15T15:13:16;27.30;99.90
19622;DHT22;9958;33.196;-97.114;2023-04-15T15:15:45;27.30;99.90
19622;DHT22;9958;33.196;-97.114;2023-04-15T15:18:15;27.30;99.90
19622;DHT22;9958;33.196;-97.114;2023-04-15T15:20:44;27.40;99.90
19622;DHT22;9958;33.196;-97.114;2023-04-15T15:23:13;27.40;99.90
19622;DHT22;9958;33.196;-97.114;2023-04-15T15:25:42;27.40;99.90
19622;DHT22;9958;33.196;-97.114;2023-04-15T15:28:11;27.40;99.90
19622;DHT22;9958;33.196;-97.114;2023-04-15T15:30:39;27.30;99.90
19622;DHT22;9958;33.196;-97.114;2023-04-15T15:33:07;27.20;99.90